Time;durP1;ratioP1;P1;durP2;ratioP2;P2;SDS_P1;SDS_P2;PMS_P1;PMS_P2;Temp;Humidity;BMP_temperature;BMP_pressure;BME280_temperature;BME280_humidity;BME280_pressure;Samples;Min_cycle;Max_cycle;Signal;HPM_P1;HPM_P2
2024/01/13 00:02:01;;;;;;;4.45;1.40;;;;;;;;;;4997667;28;20109;-78
2024/01/13 00:04:26;;;;;;;3.38;1.23;;;3.60;99.90;;;;;;4996971;28;20073;-78
2024/01/13 00:06:53;;;;;;;7.30;1.50;;;3.60;99.90;;;;;;4997101;28;20038;-78
2024/01/13 00:09:18;;;;;;;2.70;1.27;;;3.60;99.90;;;;;;4997054;28;20031;-78
2024/01/13 00:11:44;;;;;;;4.28;1.40;;;3.60;99.90;;;;;;4998321;28;20398;-78
2024/01/13 00:14:09;;;;;;;5.10;1.30;;;4.70;99.90;;;;;;4999128;28;20090;-78
2024/01/13 00:16:35;;;;;;;4.13;1.50;;;3.70;99.90;;;;;;4996861;28;20026;-78
2024/01/13 00:19:01;;;;;;;2.88;1.20;;;3.70;99.90;;;;;;4997120;28;20104;-78
2024/01/13 00:21:27;;;;;;;2.38;1.20;;;;;;;;;;4997626;28;20045;-78
2024/01/13 00:23:52;;;;;;;3.50;1.15;;;3.70;99.90;;;;;;4995879;28;20048;-77
2024/01/13 00:26:18;;;;;;;3.63;1.80;;;3.70;99.90;;;;;;4997414;28;20061;-78
2024/01/13 00:28:44;;;;;;;2.97;1.33;;;3.70;99.90;;;;;;4997703;28;20034;-78
2024/01/13 00:31:12;;;;;;;6.80;1.42;;;3.70;99.90;;;;;;4998188;28;20037;-78
2024/01/13 00:33:43;;;;;;;5.10;1.20;;;3.70;99.90;;;;;;4997302;28;20501;-78
2024/01/13 00:36:09;;;;;;;3.67;0.98;;;3.70;99.90;;;;;;4996560;28;20025;-78
2024/01/13 00:38:36;;;;;;;4.07;1.45;;;;;;;;;;4996005;28;20015;-78
2024/01/13 00:41:03;;;;;;;2.70;0.90;;;3.70;99.90;;;;;;4996655;28;20426;-78
2024/01/13 00:43:28;;;;;;;2.65;1.48;;;3.70;99.90;;;;;;4997032;28;20098;-78
2024/01/13 00:45:54;;;;;;;3.28;1.73;;;3.70;99.90;;;;;;4997620;28;20031;-78
2024/01/13 00:48:20;;;;;;;4.18;1.85;;;3.70;99.90;;;;;;4996987;28;20019;-78
2024/01/13 00:50:45;;;;;;;6.88;2.33;;;3.70;99.90;;;;;;4997854;28;20026;-78
2024/01/13 00:53:11;;;;;;;3.80;1.55;;;3.70;99.90;;;;;;4996352;28;20569;-78
2024/01/13 00:55:37;;;;;;;7.05;2.40;;;3.70;99.90;;;;;;4995450;28;20394;-78
2024/01/13 00:58:02;;;;;;;5.80;1.98;;;3.60;99.90;;;;;;4996499;28;20038;-78
2024/01/13 01:00:28;;;;;;;5.40;2.10;;;3.70;99.90;;;;;;4997104;28;20058;-78
2024/01/13 01:02:54;;;;;;;6.38;2.40;;;3.70;99.90;;;;;;4996727;28;20030;-78
2024/01/13 01:05:20;;;;;;;8.43;3.03;;;;;;;;;;4996015;28;20042;-79
2024/01/13 01:07:47;;;;;;;5.82;3.03;;;3.70;99.90;;;;;;4997046;28;20482;-79
2024/01/13 01:10:13;;;;;;;7.32;2.67;;;3.70;99.90;;;;;;4995449;28;20022;-78
2024/01/13 01:12:39;;;;;;;5.25;2.50;;;3.70;99.90;;;;;;4996026;28;20023;-78
2024/01/13 01:15:05;;;;;;;6.40;3.38;;;3.70;99.90;;;;;;4995237;28;20066;-78
2024/01/13 01:17:31;;;;;;;9.60;3.78;;;3.70;99.90;;;;;;4995325;28;20026;-78
2024/01/13 01:19:57;;;;;;;10.73;3.20;;;3.70;99.90;;;;;;4997576;28;20022;-78
2024/01/13 01:22:22;;;;;;;8.02;3.88;;;3.70;99.90;;;;;;4994942;28;20022;-78
2024/01/13 01:24:48;;;;;;;6.45;3.10;;;3.70;99.90;;;;;;4996605;28;20157;-79
2024/01/13 01:27:14;;;;;;;8.57;3.55;;;3.70;99.90;;;;;;4995523;28;20216;-78
2024/01/13 01:29:39;;;;;;;10.00;4.50;;;3.60;99.90;;;;;;4996272;28;20046;-78
2024/01/13 01:32:05;;;;;;;13.07;4.00;;;3.60;99.90;;;;;;4996213;28;20086;-78
2024/01/13 01:34:31;;;;;;;9.48;3.97;;;3.60;99.90;;;;;;4996790;28;20026;-78
2024/01/13 01:36:56;;;;;;;8.77;3.88;;;3.60;99.90;;;;;;4995711;28;20034;-78
2024/01/13 01:39:22;;;;;;;8.32;3.55;;;3.50;99.90;;;;;;4995483;28;20018;-78
2024/01/13 01:41:47;;;;;;;7.35;3.47;;;3.40;99.90;;;;;;4995433;28;20031;-78
2024/01/13 01:44:13;;;;;;;9.05;4.47;;;3.40;99.90;;;;;;4997042;28;20040;-78
2024/01/13 01:46:40;;;;;;;9.93;3.90;;;3.30;99.90;;;;;;4996261;28;20026;-78
2024/01/13 01:49:06;;;;;;;9.93;4.10;;;3.30;99.90;;;;;;4996531;28;20509;-78
2024/01/13 01:51:32;;;;;;;9.95;4.22;;;3.30;99.90;;;;;;4995580;28;20050;-78
2024/01/13 01:53:59;;;;;;;12.27;4.10;;;3.30;99.90;;;;;;4997226;28;20113;-79
2024/01/13 01:56:28;;;;;;;9.07;4.13;;;3.20;99.90;;;;;;4998252;28;20116;-78
2024/01/13 01:58:54;;;;;;;9.43;3.65;;;3.20;99.90;;;;;;4997948;28;20109;-78
2024/01/13 02:01:22;;;;;;;11.75;4.30;;;3.30;99.90;;;;;;4997140;28;20504;-78
2024/01/13 02:03:48;;;;;;;10.07;4.25;;;3.30;99.90;;;;;;4998840;28;20077;-78
2024/01/13 02:06:14;;;;;;;10.82;4.35;;;3.30;99.90;;;;;;4996857;28;20034;-78
2024/01/13 02:08:41;;;;;;;12.80;5.97;;;;;;;;;;4999067;28;20030;-78
2024/01/13 02:11:10;;;;;;;9.70;4.50;;;3.30;99.90;;;;;;4997448;28;20049;-78
2024/01/13 02:13:36;;;;;;;8.88;4.03;;;3.30;99.90;;;;;;4997780;28;20054;-78
2024/01/13 02:16:03;;;;;;;8.07;3.65;;;3.30;99.90;;;;;;4997327;28;20034;-78
2024/01/13 02:18:28;;;;;;;9.95;3.95;;;3.30;99.90;;;;;;4996459;28;20018;-78
2024/01/13 02:20:54;;;;;;;10.90;4.32;;;3.30;99.90;;;;;;4998121;28;20072;-78
2024/01/13 02:23:19;;;;;;;10.65;4.45;;;3.30;99.90;;;;;;4996928;28;20106;-78
2024/01/13 02:25:45;;;;;;;12.02;5.30;;;3.30;99.90;;;;;;5000229;28;20030;-79
2024/01/13 02:28:11;;;;;;;14.18;5.72;;;3.40;99.90;;;;;;5000958;28;20026;-78
2024/01/13 02:30:37;;;;;;;12.85;6.05;;;3.40;99.90;;;;;;5001283;28;20023;-78
2024/01/13 02:33:02;;;;;;;17.05;6.57;;;3.40;99.90;;;;;;5001799;28;20026;-77
2024/01/13 02:35:28;;;;;;;14.57;5.90;;;3.40;99.90;;;;;;5002000;28;20053;-77
2024/01/13 02:37:53;;;;;;;15.02;6.45;;;3.50;99.90;;;;;;5000600;28;20440;-77
2024/01/13 02:40:19;;;;;;;16.48;6.22;;;3.50;99.90;;;;;;5000684;28;20029;-77
2024/01/13 02:42:45;;;;;;;15.40;6.50;;;3.50;99.90;;;;;;5000090;28;20033;-77
2024/01/13 02:45:10;;;;;;;17.73;6.88;;;3.50;99.90;;;;;;5000258;28;20410;-78
2024/01/13 02:47:44;;;;;;;19.25;6.80;;;3.50;99.90;;;;;;4999372;28;20593;-77
2024/01/13 02:50:10;;;;;;;19.60;7.00;;;3.60;99.90;;;;;;4999882;28;20045;-78
2024/01/13 02:52:36;;;;;;;24.67;8.02;;;3.60;99.90;;;;;;5000534;28;20029;-77
2024/01/13 02:55:02;;;;;;;19.67;6.97;;;3.60;99.90;;;;;;4999437;28;20062;-78
2024/01/13 02:57:27;;;;;;;18.52;6.72;;;3.50;99.90;;;;;;4999568;28;20018;-78
2024/01/13 02:59:53;;;;;;;19.30;6.93;;;3.60;99.90;;;;;;5000929;28;20478;-78
2024/01/13 03:02:19;;;;;;;23.52;7.35;;;3.60;99.90;;;;;;5000930;28;20054;-77
2024/01/13 03:04:44;;;;;;;17.92;6.38;;;3.60;99.90;;;;;;4999765;28;20026;-78
2024/01/13 03:07:10;;;;;;;22.02;7.32;;;3.50;99.90;;;;;;5000146;28;20507;-78
2024/01/13 03:09:35;;;;;;;19.77;7.10;;;3.50;99.90;;;;;;5000106;28;20020;-78
2024/01/13 03:12:01;;;;;;;18.60;8.00;;;3.50;99.90;;;;;;4999696;28;20058;-78
2024/01/13 03:14:27;;;;;;;20.35;8.05;;;4.10;99.90;;;;;;5000888;28;20033;-78
2024/01/13 03:16:52;;;;;;;19.08;7.18;;;3.50;99.90;;;;;;5000979;28;20490;-78
2024/01/13 03:19:21;;;;;;;19.45;7.13;;;3.50;99.90;;;;;;5000104;28;20046;-78
2024/01/13 03:21:46;;;;;;;20.25;7.13;;;3.50;99.90;;;;;;4999858;28;20378;-78
2024/01/13 03:24:12;;;;;;;18.00;8.05;;;5.00;99.90;;;;;;5000577;28;20178;-78
2024/01/13 03:26:38;;;;;;;18.75;8.02;;;3.50;99.90;;;;;;4998743;28;20390;-78
2024/01/13 03:29:03;;;;;;;19.35;8.43;;;3.50;99.90;;;;;;4998718;28;20038;-78
2024/01/13 03:31:29;;;;;;;17.27;7.30;;;3.50;99.90;;;;;;5000139;28;20431;-79
2024/01/13 03:33:55;;;;;;;19.42;7.65;;;;;;;;;;4999895;28;20029;-78
2024/01/13 03:36:20;;;;;;;19.50;7.53;;;3.50;99.90;;;;;;4999872;28;20018;-78
2024/01/13 03:38:46;;;;;;;17.30;6.90;;;3.50;99.90;;;;;;4999320;28;20022;-78
2024/01/13 03:41:14;;;;;;;20.23;7.70;;;3.50;99.90;;;;;;4999502;28;20030;-78
2024/01/13 03:43:43;;;;;;;21.55;7.45;;;3.50;99.90;;;;;;4998840;28;20117;-79
2024/01/13 03:46:08;;;;;;;16.65;6.85;;;3.50;99.90;;;;;;5000172;28;20414;-78
2024/01/13 03:48:34;;;;;;;18.00;7.30;;;3.50;99.90;;;;;;4998979;28;20033;-78
2024/01/13 03:51:03;;;;;;;18.25;6.70;;;3.40;99.90;;;;;;4999555;28;20031;-78
2024/01/13 03:53:28;;;;;;;18.98;6.63;;;3.40;99.90;;;;;;4998748;28;20052;-78
2024/01/13 03:55:54;;;;;;;16.45;6.97;;;3.30;99.90;;;;;;4998959;28;20101;-78
2024/01/13 03:58:20;;;;;;;18.10;6.75;;;3.30;99.90;;;;;;5000127;28;20026;-78
2024/01/13 04:00:46;;;;;;;18.05;6.32;;;3.30;99.90;;;;;;5000707;28;20038;-78
2024/01/13 04:03:12;;;;;;;22.25;7.22;;;3.30;99.90;;;;;;4999572;28;20026;-78
2024/01/13 04:05:37;;;;;;;16.85;6.18;;;3.30;99.90;;;;;;5000477;28;20111;-78
2024/01/13 04:08:03;;;;;;;16.60;6.75;;;3.30;99.90;;;;;;4999502;28;20046;-78
2024/01/13 04:10:29;;;;;;;16.65;5.47;;;3.30;99.90;;;;;;4998571;28;20022;-77
2024/01/13 04:12:56;;;;;;;17.85;6.05;;;3.30;99.90;;;;;;5001260;28;20037;-77
2024/01/13 04:15:22;;;;;;;17.92;6.78;;;3.30;99.90;;;;;;5001033;28;20011;-78
2024/01/13 04:17:48;;;;;;;13.45;5.80;;;3.30;99.90;;;;;;5000507;28;20383;-78
2024/01/13 04:20:14;;;;;;;15.75;5.97;;;3.30;99.90;;;;;;5000285;28;20537;-77
2024/01/13 04:22:39;;;;;;;17.00;6.05;;;3.20;99.90;;;;;;4999340;28;20073;-77
2024/01/13 04:25:05;;;;;;;18.58;5.53;;;3.40;99.90;;;;;;5000517;28;20153;-78
2024/01/13 04:27:31;;;;;;;16.77;6.05;;;3.40;99.90;;;;;;4998753;28;20037;-78
2024/01/13 04:29:57;;;;;;;13.70;5.28;;;3.40;99.90;;;;;;5000938;28;20030;-78
2024/01/13 04:32:22;;;;;;;16.42;6.20;;;3.40;99.90;;;;;;5000380;28;20045;-78
2024/01/13 04:34:48;;;;;;;15.05;6.05;;;;;;;;;;4999359;28;20019;-78
2024/01/13 04:37:14;;;;;;;18.05;6.05;;;3.40;99.90;;;;;;4999861;28;20030;-78
2024/01/13 04:39:40;;;;;;;16.60;5.57;;;3.40;99.90;;;;;;4999676;28;20038;-77
2024/01/13 04:42:06;;;;;;;15.63;5.82;;;3.40;99.90;;;;;;4999034;28;20026;-78
2024/01/13 04:44:31;;;;;;;13.60;4.78;;;3.50;99.90;;;;;;4998658;28;20042;-78
2024/01/13 04:46:57;;;;;;;19.42;5.60;;;3.50;99.90;;;;;;4999125;28;20031;-79
2024/01/13 04:49:23;;;;;;;16.00;5.20;;;;;;;;;;4997884;28;20445;-78
2024/01/13 04:51:48;;;;;;;11.93;4.75;;;3.50;99.90;;;;;;4998593;28;20058;-78
2024/01/13 04:54:14;;;;;;;12.60;4.60;;;3.50;99.90;;;;;;4998613;28;20014;-78
2024/01/13 04:56:43;;;;;;;16.88;4.90;;;3.50;99.90;;;;;;4997231;28;20019;-78
2024/01/13 04:59:08;;;;;;;17.38;5.13;;;3.50;99.90;;;;;;4998543;28;20093;-79
2024/01/13 05:01:34;;;;;;;14.63;4.75;;;;;;;;;;4998031;28;20045;-79
2024/01/13 05:04:00;;;;;;;13.18;4.53;;;3.50;99.90;;;;;;4997938;28;20508;-78
2024/01/13 05:06:26;;;;;;;14.10;4.72;;;3.50;99.90;;;;;;4997942;28;20034;-79
2024/01/13 05:08:51;;;;;;;15.15;5.60;;;3.60;99.90;;;;;;4998117;28;20145;-78
2024/01/13 05:11:19;;;;;;;15.75;5.43;;;;;;;;;;4999426;28;20026;-78
2024/01/13 05:13:45;;;;;;;12.80;4.82;;;3.50;99.90;;;;;;4997818;28;20445;-78
2024/01/13 05:23:55;;;;;;;16.88;6.32;;;3.70;99.90;;;;;;4976950;28;20055;-79
2024/01/13 05:26:21;;;;;;;16.08;6.07;;;3.60;99.90;;;;;;4979563;28;20079;-80
2024/01/13 05:28:46;;;;;;;21.85;7.05;;;3.60;99.90;;;;;;4978144;28;20027;-80
2024/01/13 05:31:12;;;;;;;16.52;6.10;;;3.60;99.90;;;;;;4978943;28;20027;-79
2024/01/13 05:33:38;;;;;;;18.92;6.80;;;;;;;;;;4978604;28;20031;-79
2024/01/13 05:36:04;;;;;;;16.63;6.00;;;3.60;99.90;;;;;;4979781;28;20103;-79
2024/01/13 05:38:29;;;;;;;18.95;6.05;;;3.50;99.90;;;;;;4979062;28;20019;-79
2024/01/13 05:40:55;;;;;;;17.27;6.07;;;3.60;99.90;;;;;;4979530;28;20471;-79
2024/01/13 05:43:21;;;;;;;30.13;7.32;;;3.50;99.90;;;;;;4978860;28;20023;-79
2024/01/13 05:45:47;;;;;;;18.65;6.35;;;;;;;;;;4978468;28;20027;-80
2024/01/13 05:48:12;;;;;;;15.90;6.15;;;3.50;99.90;;;;;;4978910;28;20035;-80
2024/01/13 05:50:38;;;;;;;19.98;6.30;;;;;;;;;;4977348;28;20379;-80
2024/01/13 05:53:04;;;;;;;16.25;5.80;;;;;;;;;;4977867;28;20038;-80
2024/01/13 05:55:30;;;;;;;15.73;5.85;;;;;;;;;;4978071;28;20023;-79
2024/01/13 05:57:56;;;;;;;14.00;5.65;;;3.60;99.90;;;;;;4978921;28;20497;-79
2024/01/13 06:00:22;;;;;;;14.43;5.00;;;3.60;99.90;;;;;;4982282;28;20066;-79
2024/01/13 06:02:47;;;;;;;15.40;6.10;;;3.60;99.90;;;;;;4981994;28;20030;-78
2024/01/13 06:05:13;;;;;;;16.73;5.82;;;3.60;99.90;;;;;;4983137;28;20066;-79
2024/01/13 06:07:39;;;;;;;13.23;5.20;;;3.50;99.90;;;;;;4981580;28;20030;-79
2024/01/13 06:10:05;;;;;;;13.10;5.18;;;3.50;99.90;;;;;;4982704;28;20483;-78
2024/01/13 06:12:30;;;;;;;13.80;5.07;;;3.60;99.90;;;;;;4981648;28;20118;-79
2024/01/13 06:14:57;;;;;;;17.77;5.63;;;3.60;99.90;;;;;;4981478;28;20083;-79
2024/01/13 06:17:22;;;;;;;14.95;5.97;;;5.30;99.90;;;;;;4982121;28;20027;-79
2024/01/13 06:19:48;;;;;;;13.02;5.65;;;3.60;99.90;;;;;;4981496;28;20467;-79
2024/01/13 06:22:14;;;;;;;15.13;4.60;;;3.50;99.90;;;;;;4981964;28;20034;-79
2024/01/13 06:24:40;;;;;;;12.88;4.53;;;;;;;;;;4983905;28;20033;-79
2024/01/13 06:27:06;;;;;;;11.52;3.72;;;;;;;;;;4980778;28;20034;-78
2024/01/13 06:29:31;;;;;;;10.57;4.18;;;3.60;99.90;;;;;;4982653;28;20069;-78
2024/01/13 06:31:57;;;;;;;10.57;3.85;;;5.00;99.90;;;;;;4982250;28;20027;-78
2024/01/13 06:34:23;;;;;;;8.40;3.38;;;3.60;99.90;;;;;;4983811;28;20018;-78
2024/01/13 06:36:48;;;;;;;12.48;4.10;;;3.60;99.90;;;;;;4982865;28;20069;-79
2024/01/13 06:39:14;;;;;;;9.30;3.22;;;;;;;;;;4983396;28;20079;-79
2024/01/13 06:41:40;;;;;;;11.13;3.33;;;;;;;;;;4980740;28;20038;-78
2024/01/13 06:44:06;;;;;;;8.43;3.47;;;3.60;99.90;;;;;;4981075;28;20380;-78
2024/01/13 06:46:32;;;;;;;13.20;4.20;;;3.60;99.90;;;;;;4981933;28;20097;-79
2024/01/13 06:49:00;;;;;;;9.98;3.05;;;3.70;99.90;;;;;;4981211;28;20031;-79
2024/01/13 06:51:26;;;;;;;7.93;3.00;;;;;;;;;;4982599;28;20082;-79
2024/01/13 06:53:52;;;;;;;7.47;2.78;;;3.60;99.90;;;;;;4980998;28;20057;-78
2024/01/13 06:56:18;;;;;;;6.93;3.08;;;;;;;;;;4981905;28;20022;-78
2024/01/13 06:58:44;;;;;;;10.82;2.67;;;3.70;99.90;;;;;;4980334;28;20505;-78
2024/01/13 07:01:14;;;;;;;9.27;2.30;;;3.70;99.90;;;;;;4982867;28;20078;-78
2024/01/13 07:03:39;;;;;;;8.00;2.80;;;3.70;99.90;;;;;;4982483;28;20351;-78
2024/01/13 07:06:05;;;;;;;5.10;1.90;;;3.70;99.90;;;;;;4979832;28;20029;-79
2024/01/13 07:08:31;;;;;;;4.53;1.67;;;3.70;99.90;;;;;;4981099;28;20430;-78
2024/01/13 07:10:56;;;;;;;4.70;1.10;;;3.80;99.90;;;;;;4979228;28;20027;-78
2024/01/13 07:13:22;;;;;;;3.60;1.60;;;3.70;99.90;;;;;;4981592;28;20019;-79
2024/01/13 07:15:47;;;;;;;5.35;1.45;;;3.70;99.90;;;;;;4980562;28;20023;-78
2024/01/13 07:18:13;;;;;;;2.03;0.90;;;3.80;99.90;;;;;;4980539;28;20463;-79
2024/01/13 07:20:39;;;;;;;4.57;1.52;;;;;;;;;;4983643;28;20034;-79
2024/01/13 07:23:05;;;;;;;3.60;1.20;;;3.80;99.90;;;;;;4981287;28;20078;-79
2024/01/13 07:25:33;;;;;;;2.33;0.75;;;;;;;;;;4980760;28;20522;-79
2024/01/13 07:28:02;;;;;;;2.78;0.90;;;;;;;;;;4982671;28;20030;-79
2024/01/13 07:30:28;;;;;;;4.85;1.50;;;;;;;;;;4983318;28;20027;-79
2024/01/13 07:32:54;;;;;;;5.70;1.10;;;3.80;99.90;;;;;;4982046;28;20586;-79
2024/01/13 07:35:19;;;;;;;7.82;1.08;;;3.90;99.90;;;;;;4982306;28;20058;-80
2024/01/13 07:37:46;;;;;;;5.53;0.90;;;;;;;;;;4982310;28;20479;-79
2024/01/13 07:40:12;;;;;;;2.60;0.70;;;3.90;99.90;;;;;;4980899;28;20031;-79
2024/01/13 07:42:39;;;;;;;3.92;1.15;;;3.90;99.90;;;;;;4980814;28;20023;-79
2024/01/13 07:45:05;;;;;;;6.75;1.55;;;3.80;99.90;;;;;;4982201;28;20091;-79
2024/01/13 07:47:31;;;;;;;6.93;2.13;;;3.80;99.90;;;;;;4980311;28;20050;-79
2024/01/13 07:49:56;;;;;;;5.35;1.10;;;3.80;99.90;;;;;;4978917;28;20066;-78
2024/01/13 07:52:22;;;;;;;4.03;0.93;;;3.80;99.90;;;;;;4981319;28;20031;-78
2024/01/13 07:54:48;;;;;;;3.97;1.13;;;3.80;99.90;;;;;;4980910;28;20475;-78
2024/01/13 07:57:14;;;;;;;6.15;1.10;;;3.80;99.90;;;;;;4979517;28;20027;-79
2024/01/13 07:59:39;;;;;;;5.45;1.08;;;5.30;99.90;;;;;;4981902;28;20019;-79
2024/01/13 08:02:05;;;;;;;5.97;1.25;;;3.80;99.90;;;;;;4980483;28;20069;-79
2024/01/13 08:04:32;;;;;;;3.55;1.70;;;3.90;99.90;;;;;;4980725;28;20029;-78
2024/01/13 08:06:57;;;;;;;2.65;1.10;;;3.90;99.90;;;;;;4980665;28;20130;-79
2024/01/13 08:09:23;;;;;;;3.67;1.33;;;5.00;99.90;;;;;;4979702;28;20062;-78
2024/01/13 08:11:49;;;;;;;7.47;1.88;;;4.10;99.90;;;;;;4979752;28;20031;-79
2024/01/13 08:14:16;;;;;;;4.55;2.38;;;4.10;99.90;;;;;;4980582;28;20023;-79
2024/01/13 08:16:42;;;;;;;3.40;1.60;;;4.10;99.90;;;;;;4981129;28;20027;-79
2024/01/13 08:19:10;;;;;;;2.90;1.17;;;;;;;;;;4980754;28;20106;-78
2024/01/13 08:21:38;;;;;;;3.40;1.40;;;4.10;99.90;;;;;;4979967;28;20035;-79
2024/01/13 08:24:03;;;;;;;5.20;1.80;;;4.00;99.90;;;;;;4979941;28;20042;-79
2024/01/13 08:26:30;;;;;;;5.85;1.52;;;4.00;99.90;;;;;;4978837;28;20259;-79
2024/01/13 08:28:56;;;;;;;4.45;1.55;;;;;;;;;;4977534;28;20019;-79
2024/01/13 08:31:22;;;;;;;3.25;1.60;;;;;;;;;;4978106;28;20034;-79
2024/01/13 08:33:48;;;;;;;3.67;1.60;;;;;;;;;;4979235;28;20053;-79
2024/01/13 08:36:14;;;;;;;6.82;1.88;;;4.10;99.90;;;;;;4977959;28;20053;-79
2024/01/13 08:38:43;;;;;;;4.68;1.55;;;4.00;99.90;;;;;;4978439;28;20027;-79
2024/01/13 08:41:09;;;;;;;6.32;2.03;;;4.00;99.90;;;;;;4979183;28;20037;-79
2024/01/13 08:43:34;;;;;;;3.97;1.67;;;4.00;99.90;;;;;;4979177;28;20552;-79
2024/01/13 08:48:36;;;;;;;6.10;1.98;;;3.90;99.90;;;;;;5270889;23;20042;-77
2024/01/13 08:51:01;;;;;;;6.32;2.00;;;3.90;99.90;;;;;;4998538;28;20030;-80
2024/01/13 08:53:27;;;;;;;7.07;1.45;;;3.90;99.90;;;;;;4997947;28;20045;-78
2024/01/13 08:55:53;;;;;;;4.13;1.10;;;3.90;99.90;;;;;;4999550;28;20458;-78
2024/01/13 08:58:19;;;;;;;7.05;1.55;;;3.90;99.90;;;;;;4999878;28;20022;-77
2024/01/13 09:00:45;;;;;;;8.35;1.95;;;3.80;99.90;;;;;;5001151;28;20030;-76
2024/01/13 09:03:10;;;;;;;5.15;1.77;;;3.90;99.90;;;;;;4999548;28;20056;-76
2024/01/13 09:05:36;;;;;;;6.60;1.38;;;3.90;99.90;;;;;;4999804;28;20033;-77
2024/01/13 09:08:02;;;;;;;7.55;1.42;;;3.90;99.90;;;;;;4998683;28;20046;-76
2024/01/13 09:10:28;;;;;;;5.90;1.40;;;3.90;99.90;;;;;;4998674;28;20394;-77
2024/01/13 09:12:54;;;;;;;5.43;1.77;;;3.90;99.90;;;;;;4998571;28;20038;-77
2024/01/13 09:15:20;;;;;;;5.88;2.15;;;;;;;;;;4998563;28;20550;-78
2024/01/13 09:17:45;;;;;;;4.43;1.70;;;3.90;99.90;;;;;;4996064;28;20046;-77
2024/01/13 09:20:11;;;;;;;6.60;1.50;;;3.90;99.90;;;;;;4997812;28;20022;-77
2024/01/13 09:22:37;;;;;;;4.32;1.58;;;3.90;99.90;;;;;;4996259;28;20030;-76
2024/01/13 09:25:03;;;;;;;9.25;2.17;;;3.90;99.90;;;;;;4998248;28;20386;-78
2024/01/13 09:27:29;;;;;;;6.03;1.83;;;3.90;99.90;;;;;;4998148;28;20448;-76
2024/01/13 09:29:55;;;;;;;6.20;2.22;;;;;;;;;;4998290;28;20053;-78
2024/01/13 09:32:21;;;;;;;7.70;2.30;;;4.00;99.90;;;;;;4998877;28;20033;-78
2024/01/13 09:34:46;;;;;;;7.63;3.25;;;4.00;99.90;;;;;;4996988;28;20549;-77
2024/01/13 09:37:14;;;;;;;8.85;2.60;;;4.00;99.90;;;;;;4998777;28;20101;-77
2024/01/13 09:39:39;;;;;;;10.93;2.85;;;4.00;99.90;;;;;;4997791;28;20030;-77
2024/01/13 09:42:12;;;;;;;12.55;3.55;;;4.10;99.90;;;;;;4998707;28;20019;-77
2024/01/13 09:44:38;;;;;;;9.50;3.53;;;4.10;99.90;;;;;;4999274;28;20038;-77
2024/01/13 09:47:04;;;;;;;11.70;3.80;;;4.10;99.90;;;;;;4997649;28;20478;-77
2024/01/13 09:49:30;;;;;;;11.77;4.28;;;4.10;99.90;;;;;;4998319;28;20094;-77
2024/01/13 09:51:57;;;;;;;12.38;4.03;;;4.10;99.90;;;;;;4997735;28;20026;-77
2024/01/13 09:54:27;;;;;;;10.70;4.28;;;4.10;99.90;;;;;;4998840;28;20030;-76
2024/01/13 09:56:53;;;;;;;13.70;4.43;;;4.10;99.90;;;;;;4998839;28;20079;-77
2024/01/13 09:59:24;;;;;;;14.23;5.15;;;4.10;99.90;;;;;;4998467;28;20018;-76
2024/01/13 10:01:53;;;;;;;14.95;4.85;;;4.10;99.90;;;;;;4997551;28;20038;-77
2024/01/13 10:04:22;;;;;;;15.32;4.28;;;4.10;99.90;;;;;;4998651;28;20026;-77
2024/01/13 10:06:48;;;;;;;15.50;6.07;;;4.10;99.90;;;;;;4999156;28;20030;-76
2024/01/13 10:09:14;;;;;;;14.82;6.05;;;5.60;99.90;;;;;;4998029;28;20049;-77
2024/01/13 10:11:40;;;;;;;17.17;6.38;;;4.20;99.90;;;;;;4997436;28;20026;-77
2024/01/13 10:14:08;;;;;;;19.00;7.20;;;4.10;99.90;;;;;;4999857;28;20398;-77
2024/01/13 10:16:34;;;;;;;19.17;7.20;;;4.10;99.90;;;;;;4998420;28;20441;-78
2024/01/13 10:19:08;;;;;;;21.50;7.40;;;4.10;99.90;;;;;;4999049;28;20034;-78
2024/01/13 10:21:35;;;;;;;20.67;8.43;;;;;;;;;;4998047;28;20054;-78
2024/01/13 10:24:02;;;;;;;24.15;8.35;;;4.10;99.90;;;;;;4995889;28;20034;-77
2024/01/13 10:26:29;;;;;;;19.60;8.18;;;4.10;99.90;;;;;;4996883;28;20034;-77
2024/01/13 10:28:56;;;;;;;21.48;8.25;;;4.10;99.90;;;;;;4998498;28;20026;-77
2024/01/13 10:31:23;;;;;;;22.13;7.95;;;4.10;99.90;;;;;;4997829;28;20033;-77
2024/01/13 10:33:49;;;;;;;23.40;7.90;;;4.20;99.90;;;;;;4997099;28;20029;-77
2024/01/13 10:36:16;;;;;;;20.88;8.27;;;;;;;;;;4997899;28;20022;-77
2024/01/13 10:38:43;;;;;;;22.13;7.93;;;4.10;99.90;;;;;;4996876;28;20104;-77
2024/01/13 10:41:09;;;;;;;24.50;9.00;;;4.10;99.90;;;;;;4996632;28;20023;-78
2024/01/13 10:43:45;;;;;;;23.90;9.30;;;4.00;99.90;;;;;;4996763;28;20081;-78
2024/01/13 10:46:13;;;;;;;26.20;9.40;;;4.10;99.90;;;;;;4997921;28;20508;-77
2024/01/13 10:48:47;;;;;;;24.55;9.32;;;4.00;99.90;;;;;;4998699;28;20026;-77
2024/01/13 10:51:42;;;;;;;27.20;9.07;;;4.10;99.90;;;;;;4999307;28;20117;-77
2024/01/13 10:54:08;;;;;;;26.75;9.48;;;4.10;99.90;;;;;;4999347;28;20109;-77
2024/01/13 10:56:38;;;;;;;32.63;10.75;;;4.10;99.90;;;;;;5000084;28;20112;-77
2024/01/13 10:59:04;;;;;;;30.35;11.25;;;4.10;99.90;;;;;;4999237;28;20026;-77
2024/01/13 11:01:31;;;;;;;25.73;10.38;;;4.10;99.90;;;;;;4999418;28;20044;-77
2024/01/13 11:03:58;;;;;;;28.08;10.73;;;4.10;99.90;;;;;;4999972;28;20034;-77
2024/01/13 11:06:25;;;;;;;36.15;12.20;;;4.10;99.90;;;;;;4999971;28;20026;-78
2024/01/13 11:08:51;;;;;;;33.03;11.25;;;4.10;99.90;;;;;;4999283;28;20030;-77
2024/01/13 11:11:24;;;;;;;30.10;11.85;;;4.20;99.90;;;;;;5000389;28;20053;-78
2024/01/13 11:14:04;;;;;;;32.38;12.55;;;4.20;99.90;;;;;;5000801;28;20011;-77
2024/01/13 11:16:32;;;;;;;32.58;12.25;;;4.10;99.90;;;;;;5000937;28;20029;-77
2024/01/13 11:18:58;;;;;;;30.73;12.40;;;4.20;99.90;;;;;;5000946;28;20029;-77
2024/01/13 11:21:29;;;;;;;35.45;13.10;;;4.10;99.90;;;;;;4999018;28;20027;-78
2024/01/13 11:23:55;;;;;;;30.90;11.27;;;4.10;99.90;;;;;;5000363;28;20022;-77
2024/01/13 11:26:42;;;;;;;25.98;10.18;;;4.10;99.90;;;;;;5000599;28;20077;-77
2024/01/13 11:29:34;;;;;;;31.42;11.57;;;4.20;99.90;;;;;;5001290;28;20085;-77
2024/01/13 11:32:00;;;;;;;35.70;11.65;;;4.20;99.90;;;;;;4998854;28;20042;-77
2024/01/13 11:34:29;;;;;;;36.03;12.82;;;4.20;99.90;;;;;;4999656;28;20022;-77
2024/01/13 11:36:59;;;;;;;33.03;12.07;;;4.20;99.90;;;;;;5001050;28;20078;-78
2024/01/13 11:39:25;;;;;;;34.03;13.32;;;4.20;99.90;;;;;;4999425;28;20023;-78
2024/01/13 11:41:52;;;;;;;37.85;13.82;;;4.30;99.90;;;;;;5001236;28;20043;-78
2024/01/13 11:44:19;;;;;;;36.05;14.40;;;4.30;99.90;;;;;;4999381;28;20073;-78
2024/01/13 11:46:56;;;;;;;40.45;13.73;;;4.30;99.90;;;;;;5000036;28;20030;-78
2024/01/13 11:49:31;;;;;;;33.88;13.18;;;;;;;;;;4999847;28;20485;-77
2024/01/13 11:52:01;;;;;;;33.38;12.35;;;4.30;99.90;;;;;;4998654;28;20030;-77
2024/01/13 11:54:28;;;;;;;37.03;13.57;;;4.40;99.90;;;;;;4997732;28;20021;-77
2024/01/13 11:56:56;;;;;;;36.80;13.07;;;4.50;99.90;;;;;;4996198;28;20442;-77
2024/01/13 11:59:21;;;;;;;31.02;11.82;;;4.50;99.90;;;;;;4998628;28;20050;-77
2024/01/13 12:01:47;;;;;;;35.60;12.50;;;4.60;99.90;;;;;;4998342;28;20023;-77
2024/01/13 12:04:14;;;;;;;33.50;12.07;;;4.60;99.90;;;;;;4997323;28;20023;-77
2024/01/13 12:06:42;;;;;;;32.58;12.82;;;4.60;99.90;;;;;;4997024;28;20022;-77
2024/01/13 12:09:08;;;;;;;29.70;11.80;;;4.60;99.90;;;;;;4997886;28;20026;-77
2024/01/13 12:11:34;;;;;;;35.65;12.25;;;4.50;99.90;;;;;;5000652;28;20042;-77
2024/01/13 12:14:03;;;;;;;31.77;12.98;;;4.50;99.90;;;;;;4999299;28;20022;-77
2024/01/13 12:16:29;;;;;;;44.95;14.10;;;4.50;99.90;;;;;;4997568;28;20109;-78
2024/01/13 12:18:55;;;;;;;37.83;13.27;;;4.50;99.90;;;;;;4997432;28;20502;-78
2024/01/13 12:21:22;;;;;;;34.47;13.32;;;5.40;99.90;;;;;;4999634;28;20106;-78
2024/01/13 12:23:48;;;;;;;28.98;11.57;;;4.50;99.90;;;;;;4998411;28;20102;-78
2024/01/13 12:26:13;;;;;;;29.40;12.00;;;4.50;99.90;;;;;;4998452;28;20026;-76
2024/01/13 12:28:40;;;;;;;37.97;12.60;;;4.50;99.90;;;;;;4998484;28;20030;-76
2024/01/13 12:31:06;;;;;;;29.80;11.60;;;4.50;99.90;;;;;;4998470;28;20030;-77
2024/01/13 12:33:33;;;;;;;32.15;12.25;;;4.50;99.90;;;;;;4999578;28;20033;-76
2024/01/13 12:36:03;;;;;;;31.08;12.43;;;4.50;99.90;;;;;;5000614;28;20072;-76
2024/01/13 12:38:32;;;;;;;34.05;12.60;;;4.50;99.90;;;;;;4999437;28;20027;-76
2024/01/13 12:40:58;;;;;;;30.35;12.02;;;4.50;99.90;;;;;;4998575;28;20018;-76
2024/01/13 12:43:25;;;;;;;37.90;13.27;;;4.50;99.90;;;;;;4997471;28;20061;-76
2024/01/13 12:45:58;;;;;;;30.50;11.38;;;4.50;99.90;;;;;;4998800;28;20027;-77
2024/01/13 12:48:25;;;;;;;34.83;12.23;;;4.50;99.90;;;;;;4997686;28;20037;-76
2024/01/13 12:50:51;;;;;;;29.67;10.98;;;4.50;99.90;;;;;;4997051;28;20077;-77
2024/01/13 12:53:25;;;;;;;36.70;12.38;;;4.60;99.90;;;;;;4999600;28;20022;-76
2024/01/13 12:55:51;;;;;;;34.80;12.18;;;4.60;99.90;;;;;;4999186;28;20121;-77
2024/01/13 12:58:17;;;;;;;38.40;13.02;;;4.60;99.90;;;;;;5000032;28;20054;-76
2024/01/13 13:00:43;;;;;;;32.80;12.38;;;4.50;99.90;;;;;;4999369;28;20406;-76
2024/01/13 13:03:09;;;;;;;33.95;12.10;;;4.60;99.90;;;;;;4999775;28;20032;-76
2024/01/13 13:05:38;;;;;;;34.70;12.77;;;4.50;99.90;;;;;;4999715;28;20026;-76
2024/01/13 13:08:04;;;;;;;40.95;11.98;;;4.50;99.90;;;;;;4996827;28;20026;-76